(°C)
22°
22°
21°
21°
20°
20°
21°
(°C)
25°
25°
24°
23°
23°
23°
23°
ESE
ESE
ESE
ESE
ESE
ESE
ESE
(km/h)
8-16
7-15
7-15
7-16
8-16
8-17
8-18
(mm)
0
0
0
0
0
0
0
(%)
8
5
5
5
4
11
18

Elevația soarelui

/ -34.8°
sun-icon
UV 7
06:14
20:27
Al doilea pătrar (315°)
04:09
17:02

METAR pentru Carolina de Sud (KCUB)

Ora Condiții Temperatură/
Punctul de rouă
Vânt Vizibilitate Vremea Nori Presiune Schimbă Brut
VFR 22.8°C / 18.9°C variable 0kt >10km - Scattered Clouds 1200ft 1022 - KCUB 260453Z AUTO 00000KT 10SM SCT012 23/19 A3019 RMK AO2 SLP220 T02280189 402780183
VFR 23.3°C / 18.3°C variable 3kt >10km - Few Clouds 1900ft
Scattered Clouds 2900ft
Scattered Clouds 5000ft
1021 - KCUB 260353Z AUTO VRB03KT 10SM FEW019 SCT029 SCT050 23/18 A3018 RMK AO2 SLP219 T02330183
VFR 23.3°C / 18.3°C 80º 5kt >10km - Few Clouds 3500ft
Scattered Clouds 5500ft
1021 - KCUB 260253Z AUTO 08005KT 10SM FEW035 SCT055 23/18 A3017 RMK AO2 SLP216 T02330183 53007
VFR 23.9°C / 18.9°C 80º 4kt >10km - Few Clouds 3600ft
Scattered Clouds 4700ft
1021 - KCUB 260153Z AUTO 08004KT 10SM FEW036 SCT047 24/19 A3016 RMK AO2 SLP212 T02390189
VFR 24.4°C / 19.4°C 70º 4kt >10km - Broken Clouds 4500ft 1021 - KCUB 260053Z AUTO 07004KT 10SM BKN045 24/19 A3016 RMK AO2 SLP211 T02440194
VFR 25.6°C / 19.4°C 70º 4kt >10km - Clear 1020 - KCUB 252353Z AUTO 07004KT 10SM CLR 26/19 A3015 RMK AO2 SLP209 T02560194 10278 20233 58000
VFR 26.7°C / 19.4°C 40º 4kt >10km - Few Clouds 5000ft 1020 - KCUB 252253Z AUTO 04004KT 10SM FEW050 27/19 A3015 RMK AO2 SLP208 T02670194
VFR 26.7°C / 19.4°C variable 4kt >10km - Few Clouds 3200ft
Scattered Clouds 4100ft
1021 - KCUB 252153Z AUTO VRB04KT 10SM FEW032 SCT041 27/19 A3016 RMK AO2 SLP212 T02670194
VFR 26.7°C / 19.4°C variable 3kt >10km - Scattered Clouds 3000ft
Broken Clouds 4000ft
- KCUB 252136Z AUTO VRB03KT 10SM SCT030 BKN040 27/19 A3016 RMK AO2 T02670194
MVFR 27.2°C / 19.4°C variable 5kt >10km - Broken Clouds 2900ft - KCUB 252110Z AUTO VRB05KT 10SM BKN029 27/19 A3016 RMK AO2 T02720194
MVFR 26.7°C / 18.9°C variable 3kt >10km - Broken Clouds 3000ft
Broken Clouds 3400ft
1020 - KCUB 252053Z AUTO VRB03KT 10SM BKN030 BKN034 27/19 A3015 RMK AO2 SLP209 T02670189 58024
VFR 26.1°C / 18.9°C variable 4kt >10km - Scattered Clouds 2400ft 1021 - KCUB 251953Z AUTO VRB04KT 10SM SCT024 26/19 A3018 RMK AO2 SLP216 T02610189
MVFR 24.4°C / 18.3°C variable 4kt >10km - Overcast 2100ft 1022 - KCUB 251853Z AUTO VRB04KT 10SM OVC021 24/18 A3020 RMK AO2 SLP226 T02440183
MVFR 23.9°C / 17.8°C variable 4kt >10km - Overcast 2000ft 1023 - KCUB 251753Z AUTO VRB04KT 10SM OVC020 24/18 A3022 RMK AO2 SLP233 T02390178 10239 20189 58004
MVFR 22.8°C / 17.2°C variable 5kt >10km - Overcast 1800ft 1023 - KCUB 251653Z AUTO VRB05KT 10SM OVC018 23/17 A3024 RMK AO2 SLP237 T02280172
MVFR 21.7°C / 16.7°C variable 3kt >10km - Overcast 1600ft 1023 - KCUB 251553Z AUTO VRB03KT 10SM OVC016 22/17 A3024 RMK AO2 SLP238 T02170167
MVFR 20.6°C / 16.1°C variable 3kt >10km - Overcast 1500ft 1023 - KCUB 251453Z AUTO VRB03KT 10SM OVC015 21/16 A3024 RMK AO2 SLP236 T02060161 51004
MVFR 20°C / 16.1°C 70º 6kt >10km - Overcast 1700ft 1023 - KCUB 251353Z AUTO 07006KT 10SM OVC017 20/16 A3024 RMK AO2 SLP236 T02000161
MVFR 19.4°C / 15.6°C variable 5kt >10km - Few Clouds 1400ft
Overcast 2000ft
1023 - KCUB 251253Z AUTO VRB05KT 10SM FEW014 OVC020 19/16 A3023 RMK AO2 SLP235 T01940156
MVFR 18.9°C / 15°C 70º 4kt >10km - Overcast 2300ft 1023 - KCUB 251153Z AUTO 07004KT 10SM OVC023 19/15 A3022 RMK AO2 SLP232 T01890150 10194 20183 53014
MVFR 18.3°C / 15°C 60º 3kt >10km - Scattered Clouds 1400ft
Overcast 2300ft
- KCUB 251118Z AUTO 06003KT 10SM SCT014 OVC023 18/15 A3022 RMK AO2 T01830150
MVFR 18.3°C / 15°C 80º 3kt >10km - Broken Clouds 1400ft
Overcast 2500ft
- KCUB 251104Z AUTO 08003KT 10SM BKN014 OVC025 18/15 A3022 RMK AO2 T01830150
MVFR 18.3°C / 15°C variable 4kt >10km - Scattered Clouds 1400ft
Overcast 2400ft
1022 - KCUB 251053Z AUTO VRB04KT 10SM SCT014 OVC024 18/15 A3021 RMK AO2 SLP229 T01830150
MVFR 18.3°C / 14.4°C 70º 4kt >10km - Overcast 2400ft 1021 - KCUB 250953Z AUTO 07004KT 10SM OVC024 18/14 A3018 RMK AO2 SLP218 T01830144

VFR

22.8°C / 18.9°C

[Mai mult]
Vânt variable 0kt
Vizibilitate >10km
Vremea -
Nori Scattered Clouds 1200ft
Presiune 1022
Schimbă -
Brut KCUB 260453Z AUTO 00000KT 10SM SCT012 23/19 A3019 RMK AO2 SLP220 T02280189 402780183

VFR

23.3°C / 18.3°C

[Mai mult]
Vânt variable 3kt
Vizibilitate >10km
Vremea -
Nori Few Clouds 1900ft
Scattered Clouds 2900ft
Scattered Clouds 5000ft
Presiune 1021
Schimbă -
Brut KCUB 260353Z AUTO VRB03KT 10SM FEW019 SCT029 SCT050 23/18 A3018 RMK AO2 SLP219 T02330183

VFR

23.3°C / 18.3°C

[Mai mult]
Vânt 80º 5kt
Vizibilitate >10km
Vremea -
Nori Few Clouds 3500ft
Scattered Clouds 5500ft
Presiune 1021
Schimbă -
Brut KCUB 260253Z AUTO 08005KT 10SM FEW035 SCT055 23/18 A3017 RMK AO2 SLP216 T02330183 53007

VFR

23.9°C / 18.9°C

[Mai mult]
Vânt 80º 4kt
Vizibilitate >10km
Vremea -
Nori Few Clouds 3600ft
Scattered Clouds 4700ft
Presiune 1021
Schimbă -
Brut KCUB 260153Z AUTO 08004KT 10SM FEW036 SCT047 24/19 A3016 RMK AO2 SLP212 T02390189

VFR

24.4°C / 19.4°C

[Mai mult]
Vânt 70º 4kt
Vizibilitate >10km
Vremea -
Nori Broken Clouds 4500ft
Presiune 1021
Schimbă -
Brut KCUB 260053Z AUTO 07004KT 10SM BKN045 24/19 A3016 RMK AO2 SLP211 T02440194

VFR

25.6°C / 19.4°C

[Mai mult]
Vânt 70º 4kt
Vizibilitate >10km
Vremea -
Nori Clear
Presiune 1020
Schimbă -
Brut KCUB 252353Z AUTO 07004KT 10SM CLR 26/19 A3015 RMK AO2 SLP209 T02560194 10278 20233 58000

VFR

26.7°C / 19.4°C

[Mai mult]
Vânt 40º 4kt
Vizibilitate >10km
Vremea -
Nori Few Clouds 5000ft
Presiune 1020
Schimbă -
Brut KCUB 252253Z AUTO 04004KT 10SM FEW050 27/19 A3015 RMK AO2 SLP208 T02670194

VFR

26.7°C / 19.4°C

[Mai mult]
Vânt variable 4kt
Vizibilitate >10km
Vremea -
Nori Few Clouds 3200ft
Scattered Clouds 4100ft
Presiune 1021
Schimbă -
Brut KCUB 252153Z AUTO VRB04KT 10SM FEW032 SCT041 27/19 A3016 RMK AO2 SLP212 T02670194

VFR

26.7°C / 19.4°C

[Mai mult]
Vânt variable 3kt
Vizibilitate >10km
Vremea -
Nori Scattered Clouds 3000ft
Broken Clouds 4000ft
Presiune
Schimbă -
Brut KCUB 252136Z AUTO VRB03KT 10SM SCT030 BKN040 27/19 A3016 RMK AO2 T02670194

MVFR

27.2°C / 19.4°C

[Mai mult]
Vânt variable 5kt
Vizibilitate >10km
Vremea -
Nori Broken Clouds 2900ft
Presiune
Schimbă -
Brut KCUB 252110Z AUTO VRB05KT 10SM BKN029 27/19 A3016 RMK AO2 T02720194

MVFR

26.7°C / 18.9°C

[Mai mult]
Vânt variable 3kt
Vizibilitate >10km
Vremea -
Nori Broken Clouds 3000ft
Broken Clouds 3400ft
Presiune 1020
Schimbă -
Brut KCUB 252053Z AUTO VRB03KT 10SM BKN030 BKN034 27/19 A3015 RMK AO2 SLP209 T02670189 58024

VFR

26.1°C / 18.9°C

[Mai mult]
Vânt variable 4kt
Vizibilitate >10km
Vremea -
Nori Scattered Clouds 2400ft
Presiune 1021
Schimbă -
Brut KCUB 251953Z AUTO VRB04KT 10SM SCT024 26/19 A3018 RMK AO2 SLP216 T02610189

MVFR

24.4°C / 18.3°C

[Mai mult]
Vânt variable 4kt
Vizibilitate >10km
Vremea -
Nori Overcast 2100ft
Presiune 1022
Schimbă -
Brut KCUB 251853Z AUTO VRB04KT 10SM OVC021 24/18 A3020 RMK AO2 SLP226 T02440183

MVFR

23.9°C / 17.8°C

[Mai mult]
Vânt variable 4kt
Vizibilitate >10km
Vremea -
Nori Overcast 2000ft
Presiune 1023
Schimbă -
Brut KCUB 251753Z AUTO VRB04KT 10SM OVC020 24/18 A3022 RMK AO2 SLP233 T02390178 10239 20189 58004

MVFR

22.8°C / 17.2°C

[Mai mult]
Vânt variable 5kt
Vizibilitate >10km
Vremea -
Nori Overcast 1800ft
Presiune 1023
Schimbă -
Brut KCUB 251653Z AUTO VRB05KT 10SM OVC018 23/17 A3024 RMK AO2 SLP237 T02280172

MVFR

21.7°C / 16.7°C

[Mai mult]
Vânt variable 3kt
Vizibilitate >10km
Vremea -
Nori Overcast 1600ft
Presiune 1023
Schimbă -
Brut KCUB 251553Z AUTO VRB03KT 10SM OVC016 22/17 A3024 RMK AO2 SLP238 T02170167

MVFR

20.6°C / 16.1°C

[Mai mult]
Vânt variable 3kt
Vizibilitate >10km
Vremea -
Nori Overcast 1500ft
Presiune 1023
Schimbă -
Brut KCUB 251453Z AUTO VRB03KT 10SM OVC015 21/16 A3024 RMK AO2 SLP236 T02060161 51004

MVFR

20°C / 16.1°C

[Mai mult]
Vânt 70º 6kt
Vizibilitate >10km
Vremea -
Nori Overcast 1700ft
Presiune 1023
Schimbă -
Brut KCUB 251353Z AUTO 07006KT 10SM OVC017 20/16 A3024 RMK AO2 SLP236 T02000161

MVFR

19.4°C / 15.6°C

[Mai mult]
Vânt variable 5kt
Vizibilitate >10km
Vremea -
Nori Few Clouds 1400ft
Overcast 2000ft
Presiune 1023
Schimbă -
Brut KCUB 251253Z AUTO VRB05KT 10SM FEW014 OVC020 19/16 A3023 RMK AO2 SLP235 T01940156

MVFR

18.9°C / 15°C

[Mai mult]
Vânt 70º 4kt
Vizibilitate >10km
Vremea -
Nori Overcast 2300ft
Presiune 1023
Schimbă -
Brut KCUB 251153Z AUTO 07004KT 10SM OVC023 19/15 A3022 RMK AO2 SLP232 T01890150 10194 20183 53014

MVFR

18.3°C / 15°C

[Mai mult]
Vânt 60º 3kt
Vizibilitate >10km
Vremea -
Nori Scattered Clouds 1400ft
Overcast 2300ft
Presiune
Schimbă -
Brut KCUB 251118Z AUTO 06003KT 10SM SCT014 OVC023 18/15 A3022 RMK AO2 T01830150

MVFR

18.3°C / 15°C

[Mai mult]
Vânt 80º 3kt
Vizibilitate >10km
Vremea -
Nori Broken Clouds 1400ft
Overcast 2500ft
Presiune
Schimbă -
Brut KCUB 251104Z AUTO 08003KT 10SM BKN014 OVC025 18/15 A3022 RMK AO2 T01830150

MVFR

18.3°C / 15°C

[Mai mult]
Vânt variable 4kt
Vizibilitate >10km
Vremea -
Nori Scattered Clouds 1400ft
Overcast 2400ft
Presiune 1022
Schimbă -
Brut KCUB 251053Z AUTO VRB04KT 10SM SCT014 OVC024 18/15 A3021 RMK AO2 SLP229 T01830150

MVFR

18.3°C / 14.4°C

[Mai mult]
Vânt 70º 4kt
Vizibilitate >10km
Vremea -
Nori Overcast 2400ft
Presiune 1021
Schimbă -
Brut KCUB 250953Z AUTO 07004KT 10SM OVC024 18/14 A3018 RMK AO2 SLP218 T01830144

TAF pentru Carolina de Sud (KCUB)

From till


From till Wind 130º 5kt. Visibility 10km or more. Scattered Clouds 700ft. Broken Clouds 1500ft.
Temporarly from till Overcast 700ft.
From till Wind 170º 8kt. Visibility 10km or more. Broken Clouds 2500ft.

Brut: KCUB 260403Z 2604/2624 13005KT P6SM SCT007 BKN015 TEMPO 2609/2612 OVC007 FM261600 17008KT P6SM BKN025

Radar și nowcast de precipitații pentru Carolina de Sud

Burniță
Ușoară
Moderat
Greu
Foarte greu
Grindină

Markerul de locație este plasat în Carolina de Sud. Această animație arată radarul de precipitații pentru ultima oră, precum și o 1h prognoză. Ploaia sau ninsoarea slabă ar putea fi invizibilă pentru radar. Intensitatea precipitațiilor este codificată prin culori, de la albastru deschis la portocaliu.

Imagini satelitare actuale pentru: Carolina de Sud, S.U.A.

Markerul cu locaţia este poziţionat pe Carolina de Sud. [Mai mult]

Imaginea satelitară în timp real combină lumina vizibilă din timpul zilei cu radiația cu infraroșu din timpul nopții. Pe timp de noapte, imaginea nu este întunecată, deoarece radiația cu infraroșu poate detecta diferențele de temperatură. Din păcate, norii joși și ceața sunt greu de recunoscut față de temperatura de la sol, din această cauză putând fi invizibili pe timp de noapte. Imaginile satelitare Meteosat pentru Europa sunt actualizate în timp real din 5 în 5 minute. Imaginile GOES-16/GOES-17 (America de Nord și de Sud) și Himawari (Asia) sunt actualizate din 10 în 10 minute.

Mergi sus